Darlington, South Carolina
Current Conditions -  °F | °C
As of 9:35 AM on Sunday 23 Nov 2014 (Local Time) from KUDG Reporting Station
Overcast Overcast  
Wind Chill:   Ceiling: 200
Heat Index:   Visibility: 2mi
Dew Point:   Wind: 6mph
Humidity: 87%   Direction: 40°NE
Pressure: 30.2"   Gusts: NA
Location:  34.3°N, 79.87°W
Report Text: KUDG 231435Z AUTO 04005KT 2SM OVC002 09/07 A3020 RMK AO1 P0003
Loading
Personal Weather Stations






























Interactive Weather Map New forecast layout! Learn more

10-Day Weather Forecast

Advertisements
Track Severe Weather on mobile